sensor_id;sensor_type;location;lat;lon;timestamp;temperature;humidity
680;DHT22;322;48.846;9.230;2023-04-15T00:01:13;3.90;93.70
680;DHT22;322;48.846;9.230;2023-04-15T00:03:45;3.80;94.00
680;DHT22;322;48.846;9.230;2023-04-15T00:06:12;3.80;93.90
680;DHT22;322;48.846;9.230;2023-04-15T00:08:39;3.80;94.40
680;DHT22;322;48.846;9.230;2023-04-15T00:11:06;3.90;94.20
680;DHT22;322;48.846;9.230;2023-04-15T00:13:33;3.90;94.20
680;DHT22;322;48.846;9.230;2023-04-15T00:16:00;3.90;94.30
680;DHT22;322;48.846;9.230;2023-04-15T00:18:27;3.90;94.50
680;DHT22;322;48.846;9.230;2023-04-15T00:20:55;3.90;94.20
680;DHT22;322;48.846;9.230;2023-04-15T00:23:22;3.80;94.00
680;DHT22;322;48.846;9.230;2023-04-15T00:25:49;3.60;94.30
680;DHT22;322;48.846;9.230;2023-04-15T00:28:16;3.60;94.60
680;DHT22;322;48.846;9.230;2023-04-15T00:30:43;3.50;94.50
680;DHT22;322;48.846;9.230;2023-04-15T00:33:10;3.50;95.10
680;DHT22;322;48.846;9.230;2023-04-15T00:35:37;3.40;94.80
680;DHT22;322;48.846;9.230;2023-04-15T00:38:06;3.50;95.00
680;DHT22;322;48.846;9.230;2023-04-15T00:40:33;3.40;94.90
680;DHT22;322;48.846;9.230;2023-04-15T00:43:01;3.30;95.10
680;DHT22;322;48.846;9.230;2023-04-15T00:45:28;3.50;95.10
680;DHT22;322;48.846;9.230;2023-04-15T00:47:56;3.40;94.40
680;DHT22;322;48.846;9.230;2023-04-15T00:50:24;3.40;93.90
680;DHT22;322;48.846;9.230;2023-04-15T00:52:50;3.30;94.20
680;DHT22;322;48.846;9.230;2023-04-15T00:55:19;3.10;94.60
680;DHT22;322;48.846;9.230;2023-04-15T00:57:45;3.10;95.20
680;DHT22;322;48.846;9.230;2023-04-15T01:00:13;3.00;95.00
680;DHT22;322;48.846;9.230;2023-04-15T01:02:41;2.90;95.40
680;DHT22;322;48.846;9.230;2023-04-15T01:05:08;2.90;96.30
680;DHT22;322;48.846;9.230;2023-04-15T01:07:35;2.90;96.90
680;DHT22;322;48.846;9.230;2023-04-15T01:10:03;3.00;97.20
680;DHT22;322;48.846;9.230;2023-04-15T01:12:32;3.10;97.00
680;DHT22;322;48.846;9.230;2023-04-15T01:15:01;3.10;96.30
680;DHT22;322;48.846;9.230;2023-04-15T01:17:27;3.00;95.90
680;DHT22;322;48.846;9.230;2023-04-15T01:19:55;2.90;96.00
680;DHT22;322;48.846;9.230;2023-04-15T01:22:22;2.80;96.30
680;DHT22;322;48.846;9.230;2023-04-15T01:24:54;2.70;96.40
680;DHT22;322;48.846;9.230;2023-04-15T01:27:24;2.70;96.80
680;DHT22;322;48.846;9.230;2023-04-15T01:29:51;2.70;96.80
680;DHT22;322;48.846;9.230;2023-04-15T01:32:18;2.60;96.80
680;DHT22;322;48.846;9.230;2023-04-15T01:34:45;2.60;96.80
680;DHT22;322;48.846;9.230;2023-04-15T01:37:12;2.70;96.60
680;DHT22;322;48.846;9.230;2023-04-15T01:39:39;2.80;96.40
680;DHT22;322;48.846;9.230;2023-04-15T01:42:05;2.90;96.40
680;DHT22;322;48.846;9.230;2023-04-15T01:44:34;2.90;96.40
680;DHT22;322;48.846;9.230;2023-04-15T01:47:00;2.80;96.50
680;DHT22;322;48.846;9.230;2023-04-15T01:49:27;2.70;96.40
680;DHT22;322;48.846;9.230;2023-04-15T01:51:54;2.70;96.70
680;DHT22;322;48.846;9.230;2023-04-15T01:54:21;2.60;96.60
680;DHT22;322;48.846;9.230;2023-04-15T01:56:48;2.60;97.00
680;DHT22;322;48.846;9.230;2023-04-15T01:59:14;2.60;96.80
680;DHT22;322;48.846;9.230;2023-04-15T02:01:43;2.60;96.80
680;DHT22;322;48.846;9.230;2023-04-15T02:04:11;2.60;96.80
680;DHT22;322;48.846;9.230;2023-04-15T02:06:41;2.60;96.90
680;DHT22;322;48.846;9.230;2023-04-15T02:09:08;2.80;96.70
680;DHT22;322;48.846;9.230;2023-04-15T02:11:35;2.70;96.50
680;DHT22;322;48.846;9.230;2023-04-15T02:14:02;2.60;96.70
680;DHT22;322;48.846;9.230;2023-04-15T02:16:30;2.60;96.60
680;DHT22;322;48.846;9.230;2023-04-15T02:18:59;2.60;96.50
680;DHT22;322;48.846;9.230;2023-04-15T02:21:25;2.80;96.70
680;DHT22;322;48.846;9.230;2023-04-15T02:23:52;2.80;96.30
680;DHT22;322;48.846;9.230;2023-04-15T02:26:19;2.80;96.40
680;DHT22;322;48.846;9.230;2023-04-15T02:28:46;2.60;96.00
680;DHT22;322;48.846;9.230;2023-04-15T02:31:13;2.50;96.10
680;DHT22;322;48.846;9.230;2023-04-15T02:33:40;2.50;96.30
680;DHT22;322;48.846;9.230;2023-04-15T02:36:08;2.50;96.40
680;DHT22;322;48.846;9.230;2023-04-15T02:38:36;2.30;96.30
680;DHT22;322;48.846;9.230;2023-04-15T02:41:05;2.30;97.00
680;DHT22;322;48.846;9.230;2023-04-15T02:43:32;2.20;96.60
680;DHT22;322;48.846;9.230;2023-04-15T02:45:58;2.20;96.60
680;DHT22;322;48.846;9.230;2023-04-15T02:48:25;2.30;96.60
680;DHT22;322;48.846;9.230;2023-04-15T02:50:52;2.20;96.40
680;DHT22;322;48.846;9.230;2023-04-15T02:53:20;2.20;96.80
680;DHT22;322;48.846;9.230;2023-04-15T02:55:47;2.10;96.90
680;DHT22;322;48.846;9.230;2023-04-15T02:58:14;2.10;97.00
680;DHT22;322;48.846;9.230;2023-04-15T03:00:40;2.10;96.80
680;DHT22;322;48.846;9.230;2023-04-15T03:03:07;2.00;96.70
680;DHT22;322;48.846;9.230;2023-04-15T03:05:35;2.00;97.10
680;DHT22;322;48.846;9.230;2023-04-15T03:08:03;2.10;97.50
680;DHT22;322;48.846;9.230;2023-04-15T03:10:32;2.10;97.80
680;DHT22;322;48.846;9.230;2023-04-15T03:12:59;2.20;98.60
680;DHT22;322;48.846;9.230;2023-04-15T03:15:25;2.30;98.20
680;DHT22;322;48.846;9.230;2023-04-15T03:17:53;2.50;98.00
680;DHT22;322;48.846;9.230;2023-04-15T03:20:19;2.40;97.70
680;DHT22;322;48.846;9.230;2023-04-15T03:22:46;2.30;97.60
680;DHT22;322;48.846;9.230;2023-04-15T03:25:13;2.40;98.00
680;DHT22;322;48.846;9.230;2023-04-15T03:27:41;2.40;98.10
680;DHT22;322;48.846;9.230;2023-04-15T03:30:09;2.50;97.90
680;DHT22;322;48.846;9.230;2023-04-15T03:32:36;2.40;97.80
680;DHT22;322;48.846;9.230;2023-04-15T03:35:04;2.40;97.90
680;DHT22;322;48.846;9.230;2023-04-15T03:37:31;2.40;98.00
680;DHT22;322;48.846;9.230;2023-04-15T03:39:58;2.50;98.10
680;DHT22;322;48.846;9.230;2023-04-15T03:42:25;2.60;98.30
680;DHT22;322;48.846;9.230;2023-04-15T03:44:53;2.80;97.90
680;DHT22;322;48.846;9.230;2023-04-15T03:47:19;2.60;97.30
680;DHT22;322;48.846;9.230;2023-04-15T03:49:46;2.50;97.30
680;DHT22;322;48.846;9.230;2023-04-15T03:52:13;2.60;97.20
680;DHT22;322;48.846;9.230;2023-04-15T03:54:40;2.50;97.00
680;DHT22;322;48.846;9.230;2023-04-15T03:57:07;2.50;97.30
680;DHT22;322;48.846;9.230;2023-04-15T03:59:33;2.60;97.50
680;DHT22;322;48.846;9.230;2023-04-15T04:02:02;2.60;97.40
680;DHT22;322;48.846;9.230;2023-04-15T04:04:28;2.70;97.20
680;DHT22;322;48.846;9.230;2023-04-15T04:06:56;2.60;97.00
680;DHT22;322;48.846;9.230;2023-04-15T04:09:22;2.50;97.10
680;DHT22;322;48.846;9.230;2023-04-15T04:11:50;2.50;97.20
680;DHT22;322;48.846;9.230;2023-04-15T04:14:17;2.50;97.00
680;DHT22;322;48.846;9.230;2023-04-15T04:16:43;2.50;96.80
680;DHT22;322;48.846;9.230;2023-04-15T04:19:12;2.50;96.60
680;DHT22;322;48.846;9.230;2023-04-15T04:21:39;2.50;96.50
680;DHT22;322;48.846;9.230;2023-04-15T04:24:06;2.50;96.50
680;DHT22;322;48.846;9.230;2023-04-15T04:26:32;2.40;96.40
680;DHT22;322;48.846;9.230;2023-04-15T04:28:59;2.30;96.10
680;DHT22;322;48.846;9.230;2023-04-15T04:31:26;2.30;96.40
680;DHT22;322;48.846;9.230;2023-04-15T04:33:53;2.20;96.50
680;DHT22;322;48.846;9.230;2023-04-15T04:36:21;2.10;96.70
680;DHT22;322;48.846;9.230;2023-04-15T04:38:48;2.10;97.10
680;DHT22;322;48.846;9.230;2023-04-15T04:41:15;1.90;96.90
680;DHT22;322;48.846;9.230;2023-04-15T04:43:41;2.00;97.50
680;DHT22;322;48.846;9.230;2023-04-15T04:46:08;2.00;97.40
680;DHT22;322;48.846;9.230;2023-04-15T04:48:36;2.00;97.80
680;DHT22;322;48.846;9.230;2023-04-15T04:51:03;2.00;97.70
680;DHT22;322;48.846;9.230;2023-04-15T04:53:32;2.10;97.70
680;DHT22;322;48.846;9.230;2023-04-15T04:55:58;2.10;97.20
680;DHT22;322;48.846;9.230;2023-04-15T04:58:25;2.00;97.30
680;DHT22;322;48.846;9.230;2023-04-15T05:00:52;2.00;97.60
680;DHT22;322;48.846;9.230;2023-04-15T05:03:19;2.20;97.80
680;DHT22;322;48.846;9.230;2023-04-15T05:05:46;2.30;97.00
680;DHT22;322;48.846;9.230;2023-04-15T05:08:13;2.20;96.40
680;DHT22;322;48.846;9.230;2023-04-15T05:10:42;2.30;96.50
680;DHT22;322;48.846;9.230;2023-04-15T05:13:08;2.30;96.80
680;DHT22;322;48.846;9.230;2023-04-15T05:15:35;2.30;96.90
680;DHT22;322;48.846;9.230;2023-04-15T05:18:04;2.40;97.20
680;DHT22;322;48.846;9.230;2023-04-15T05:20:31;2.50;97.10
680;DHT22;322;48.846;9.230;2023-04-15T05:22:57;2.50;97.10
680;DHT22;322;48.846;9.230;2023-04-15T05:25:24;2.60;96.90
680;DHT22;322;48.846;9.230;2023-04-15T05:27:52;2.70;96.50
680;DHT22;322;48.846;9.230;2023-04-15T05:30:19;2.80;96.70
680;DHT22;322;48.846;9.230;2023-04-15T05:32:46;2.80;96.30
680;DHT22;322;48.846;9.230;2023-04-15T05:35:13;2.80;96.30
680;DHT22;322;48.846;9.230;2023-04-15T05:37:40;2.90;96.50
680;DHT22;322;48.846;9.230;2023-04-15T05:40:08;2.90;96.50
680;DHT22;322;48.846;9.230;2023-04-15T05:42:35;3.00;96.50
680;DHT22;322;48.846;9.230;2023-04-15T05:45:04;3.20;96.20
680;DHT22;322;48.846;9.230;2023-04-15T05:47:33;3.20;96.10
680;DHT22;322;48.846;9.230;2023-04-15T05:50:00;3.30;95.70
680;DHT22;322;48.846;9.230;2023-04-15T05:52:27;3.30;95.80
680;DHT22;322;48.846;9.230;2023-04-15T05:54:54;3.50;95.90
680;DHT22;322;48.846;9.230;2023-04-15T05:57:21;3.70;95.30
680;DHT22;322;48.846;9.230;2023-04-15T05:59:48;3.70;94.90
680;DHT22;322;48.846;9.230;2023-04-15T06:02:18;3.90;94.80
680;DHT22;322;48.846;9.230;2023-04-15T06:04:44;4.00;94.70
680;DHT22;322;48.846;9.230;2023-04-15T06:07:11;4.20;94.40
680;DHT22;322;48.846;9.230;2023-04-15T06:09:38;4.30;93.60
680;DHT22;322;48.846;9.230;2023-04-15T06:12:05;4.40;93.60
680;DHT22;322;48.846;9.230;2023-04-15T06:14:36;4.60;93.20
680;DHT22;322;48.846;9.230;2023-04-15T06:17:03;4.90;91.50
680;DHT22;322;48.846;9.230;2023-04-15T06:19:31;5.10;90.30
680;DHT22;322;48.846;9.230;2023-04-15T06:21:58;5.40;88.60
680;DHT22;322;48.846;9.230;2023-04-15T06:24:25;5.60;88.20
680;DHT22;322;48.846;9.230;2023-04-15T06:26:52;5.70;88.30
680;DHT22;322;48.846;9.230;2023-04-15T06:29:19;5.90;88.70
680;DHT22;322;48.846;9.230;2023-04-15T06:31:46;6.10;87.70
680;DHT22;322;48.846;9.230;2023-04-15T06:34:13;6.40;87.20
680;DHT22;322;48.846;9.230;2023-04-15T06:36:41;6.60;84.20
680;DHT22;322;48.846;9.230;2023-04-15T06:39:08;6.70;85.50
680;DHT22;322;48.846;9.230;2023-04-15T06:41:35;6.80;87.40
680;DHT22;322;48.846;9.230;2023-04-15T06:44:02;6.80;87.80
680;DHT22;322;48.846;9.230;2023-04-15T06:46:29;6.90;87.20
680;DHT22;322;48.846;9.230;2023-04-15T06:48:55;6.90;86.20
680;DHT22;322;48.846;9.230;2023-04-15T06:51:22;6.90;85.70
680;DHT22;322;48.846;9.230;2023-04-15T06:53:50;7.10;84.70
680;DHT22;322;48.846;9.230;2023-04-15T06:56:17;7.30;84.80
680;DHT22;322;48.846;9.230;2023-04-15T06:58:44;7.30;83.20
680;DHT22;322;48.846;9.230;2023-04-15T07:01:11;7.40;85.10
680;DHT22;322;48.846;9.230;2023-04-15T07:03:38;7.50;84.90
680;DHT22;322;48.846;9.230;2023-04-15T07:06:06;7.50;82.90
680;DHT22;322;48.846;9.230;2023-04-15T07:08:34;7.40;83.60
680;DHT22;322;48.846;9.230;2023-04-15T07:11:02;7.40;82.30
680;DHT22;322;48.846;9.230;2023-04-15T07:13:30;7.40;82.50
680;DHT22;322;48.846;9.230;2023-04-15T07:15:57;7.40;81.30
680;DHT22;322;48.846;9.230;2023-04-15T07:18:24;7.30;83.00
680;DHT22;322;48.846;9.230;2023-04-15T07:20:51;7.40;83.90
680;DHT22;322;48.846;9.230;2023-04-15T07:23:18;7.30;84.10
680;DHT22;322;48.846;9.230;2023-04-15T07:25:45;7.50;84.70
680;DHT22;322;48.846;9.230;2023-04-15T07:28:14;7.50;83.80
680;DHT22;322;48.846;9.230;2023-04-15T07:30:40;7.60;83.60
680;DHT22;322;48.846;9.230;2023-04-15T07:33:07;7.90;82.70
680;DHT22;322;48.846;9.230;2023-04-15T07:35:34;8.20;81.20
680;DHT22;322;48.846;9.230;2023-04-15T07:38:01;8.30;79.60
680;DHT22;322;48.846;9.230;2023-04-15T07:40:28;8.60;80.70
680;DHT22;322;48.846;9.230;2023-04-15T07:42:55;9.10;78.60
680;DHT22;322;48.846;9.230;2023-04-15T07:45:24;9.40;76.50
680;DHT22;322;48.846;9.230;2023-04-15T07:47:51;9.50;73.10
680;DHT22;322;48.846;9.230;2023-04-15T07:50:18;9.50;74.90
680;DHT22;322;48.846;9.230;2023-04-15T07:52:45;9.60;72.20
680;DHT22;322;48.846;9.230;2023-04-15T07:55:12;9.80;73.50
680;DHT22;322;48.846;9.230;2023-04-15T07:57:39;9.90;70.40
680;DHT22;322;48.846;9.230;2023-04-15T08:00:07;9.90;70.80
680;DHT22;322;48.846;9.230;2023-04-15T08:02:35;9.90;69.30
680;DHT22;322;48.846;9.230;2023-04-15T08:05:02;10.00;71.10
680;DHT22;322;48.846;9.230;2023-04-15T08:07:29;10.20;70.50
680;DHT22;322;48.846;9.230;2023-04-15T08:09:57;10.40;69.90
680;DHT22;322;48.846;9.230;2023-04-15T08:12:23;10.70;68.70
680;DHT22;322;48.846;9.230;2023-04-15T08:14:50;11.10;67.30
680;DHT22;322;48.846;9.230;2023-04-15T08:17:17;11.30;62.40
680;DHT22;322;48.846;9.230;2023-04-15T08:19:45;11.40;62.10
680;DHT22;322;48.846;9.230;2023-04-15T08:22:12;11.50;63.30
680;DHT22;322;48.846;9.230;2023-04-15T08:24:39;11.80;60.70
680;DHT22;322;48.846;9.230;2023-04-15T08:27:07;12.00;59.20
680;DHT22;322;48.846;9.230;2023-04-15T08:29:34;12.30;58.30
680;DHT22;322;48.846;9.230;2023-04-15T08:32:01;12.50;57.10
680;DHT22;322;48.846;9.230;2023-04-15T08:34:28;12.80;57.50
680;DHT22;322;48.846;9.230;2023-04-15T08:36:57;13.20;56.80
680;DHT22;322;48.846;9.230;2023-04-15T08:39:23;13.50;55.90
680;DHT22;322;48.846;9.230;2023-04-15T08:41:54;13.50;52.80
680;DHT22;322;48.846;9.230;2023-04-15T08:44:23;13.40;52.60
680;DHT22;322;48.846;9.230;2023-04-15T08:46:51;13.50;52.40
680;DHT22;322;48.846;9.230;2023-04-15T08:49:20;13.10;53.40
680;DHT22;322;48.846;9.230;2023-04-15T08:51:48;13.00;54.70
680;DHT22;322;48.846;9.230;2023-04-15T08:54:17;13.10;56.00
680;DHT22;322;48.846;9.230;2023-04-15T08:56:44;13.10;58.10
680;DHT22;322;48.846;9.230;2023-04-15T08:59:11;13.40;56.70
680;DHT22;322;48.846;9.230;2023-04-15T09:01:39;13.60;55.40
680;DHT22;322;48.846;9.230;2023-04-15T09:04:06;14.00;54.80
680;DHT22;322;48.846;9.230;2023-04-15T09:06:33;14.10;52.50
680;DHT22;322;48.846;9.230;2023-04-15T09:09:02;14.30;54.10
680;DHT22;322;48.846;9.230;2023-04-15T09:11:30;14.40;52.00
680;DHT22;322;48.846;9.230;2023-04-15T09:13:57;14.30;53.80
680;DHT22;322;48.846;9.230;2023-04-15T09:16:24;14.20;53.60
680;DHT22;322;48.846;9.230;2023-04-15T09:18:50;14.30;54.10
680;DHT22;322;48.846;9.230;2023-04-15T09:21:17;14.40;54.30
680;DHT22;322;48.846;9.230;2023-04-15T09:23:54;14.40;51.80
680;DHT22;322;48.846;9.230;2023-04-15T09:26:31;14.30;49.00
680;DHT22;322;48.846;9.230;2023-04-15T09:29:03;14.50;52.50
680;DHT22;322;48.846;9.230;2023-04-15T09:31:31;15.10;52.70
680;DHT22;322;48.846;9.230;2023-04-15T09:33:58;15.20;49.90
680;DHT22;322;48.846;9.230;2023-04-15T09:36:25;14.80;49.70
680;DHT22;322;48.846;9.230;2023-04-15T09:38:55;14.60;50.70
680;DHT22;322;48.846;9.230;2023-04-15T09:41:22;14.60;49.10
680;DHT22;322;48.846;9.230;2023-04-15T09:43:51;14.60;48.60
680;DHT22;322;48.846;9.230;2023-04-15T09:46:18;14.60;48.40
680;DHT22;322;48.846;9.230;2023-04-15T09:48:45;14.50;49.10
680;DHT22;322;48.846;9.230;2023-04-15T09:51:11;14.60;50.80
680;DHT22;322;48.846;9.230;2023-04-15T09:53:38;14.40;51.70
680;DHT22;322;48.846;9.230;2023-04-15T09:56:06;14.00;50.70
680;DHT22;322;48.846;9.230;2023-04-15T09:58:35;13.90;50.70
680;DHT22;322;48.846;9.230;2023-04-15T10:01:04;14.00;51.20
680;DHT22;322;48.846;9.230;2023-04-15T10:03:33;14.00;50.90
680;DHT22;322;48.846;9.230;2023-04-15T10:06:01;13.90;51.90
680;DHT22;322;48.846;9.230;2023-04-15T10:08:30;13.70;52.00
680;DHT22;322;48.846;9.230;2023-04-15T10:11:00;13.60;52.10
680;DHT22;322;48.846;9.230;2023-04-15T10:13:30;13.60;52.40
680;DHT22;322;48.846;9.230;2023-04-15T10:16:05;14.20;51.10
680;DHT22;322;48.846;9.230;2023-04-15T10:18:34;14.90;49.70
680;DHT22;322;48.846;9.230;2023-04-15T10:21:01;15.10;47.30
680;DHT22;322;48.846;9.230;2023-04-15T10:23:28;14.80;47.30
680;DHT22;322;48.846;9.230;2023-04-15T10:25:56;14.70;48.80
680;DHT22;322;48.846;9.230;2023-04-15T10:28:25;14.80;47.50
680;DHT22;322;48.846;9.230;2023-04-15T10:30:52;14.70;47.30
680;DHT22;322;48.846;9.230;2023-04-15T10:33:22;14.70;47.20
680;DHT22;322;48.846;9.230;2023-04-15T10:35:50;14.80;46.80
680;DHT22;322;48.846;9.230;2023-04-15T10:38:30;14.80;45.10
680;DHT22;322;48.846;9.230;2023-04-15T10:41:11;14.50;46.90
680;DHT22;322;48.846;9.230;2023-04-15T10:43:38;14.60;47.30
680;DHT22;322;48.846;9.230;2023-04-15T10:46:05;14.80;47.20
680;DHT22;322;48.846;9.230;2023-04-15T10:48:33;14.80;46.10
680;DHT22;322;48.846;9.230;2023-04-15T10:51:00;15.00;48.20
680;DHT22;322;48.846;9.230;2023-04-15T10:53:28;15.30;46.50
680;DHT22;322;48.846;9.230;2023-04-15T10:55:56;15.30;47.20
680;DHT22;322;48.846;9.230;2023-04-15T10:58:24;15.30;48.10
680;DHT22;322;48.846;9.230;2023-04-15T11:00:52;15.30;46.20
680;DHT22;322;48.846;9.230;2023-04-15T11:03:36;15.30;45.70
680;DHT22;322;48.846;9.230;2023-04-15T11:06:03;15.50;44.80
680;DHT22;322;48.846;9.230;2023-04-15T11:08:53;15.60;46.20
680;DHT22;322;48.846;9.230;2023-04-15T11:11:20;15.80;46.90
680;DHT22;322;48.846;9.230;2023-04-15T11:13:48;16.00;46.00
680;DHT22;322;48.846;9.230;2023-04-15T11:16:15;16.30;46.40
680;DHT22;322;48.846;9.230;2023-04-15T11:18:52;16.10;47.00
680;DHT22;322;48.846;9.230;2023-04-15T11:21:23;15.90;45.40
680;DHT22;322;48.846;9.230;2023-04-15T11:23:50;15.80;46.20
680;DHT22;322;48.846;9.230;2023-04-15T11:26:17;15.60;44.90
680;DHT22;322;48.846;9.230;2023-04-15T11:28:45;15.40;48.50
680;DHT22;322;48.846;9.230;2023-04-15T11:31:13;15.20;48.90
680;DHT22;322;48.846;9.230;2023-04-15T11:33:46;14.90;49.40
680;DHT22;322;48.846;9.230;2023-04-15T11:36:18;14.50;50.20
680;DHT22;322;48.846;9.230;2023-04-15T11:38:46;14.30;52.00
680;DHT22;322;48.846;9.230;2023-04-15T11:41:13;14.10;51.80
680;DHT22;322;48.846;9.230;2023-04-15T11:43:40;14.00;51.30
680;DHT22;322;48.846;9.230;2023-04-15T11:46:07;14.10;50.70
680;DHT22;322;48.846;9.230;2023-04-15T11:48:35;14.20;48.00
680;DHT22;322;48.846;9.230;2023-04-15T11:51:04;14.30;48.80
680;DHT22;322;48.846;9.230;2023-04-15T11:53:39;14.40;49.10
680;DHT22;322;48.846;9.230;2023-04-15T11:56:08;14.70;48.30
680;DHT22;322;48.846;9.230;2023-04-15T11:58:36;15.10;47.00
680;DHT22;322;48.846;9.230;2023-04-15T12:01:04;15.40;45.80
680;DHT22;322;48.846;9.230;2023-04-15T12:03:36;15.00;45.50
680;DHT22;322;48.846;9.230;2023-04-15T12:06:10;14.10;47.60
680;DHT22;322;48.846;9.230;2023-04-15T12:08:57;13.60;50.30
680;DHT22;322;48.846;9.230;2023-04-15T12:11:32;13.40;52.50
680;DHT22;322;48.846;9.230;2023-04-15T12:14:04;13.40;54.40
680;DHT22;322;48.846;9.230;2023-04-15T12:16:32;13.20;58.00
680;DHT22;322;48.846;9.230;2023-04-15T12:18:59;12.90;57.00
680;DHT22;322;48.846;9.230;2023-04-15T12:21:34;12.70;56.30
680;DHT22;322;48.846;9.230;2023-04-15T12:24:02;12.50;56.50
680;DHT22;322;48.846;9.230;2023-04-15T12:26:32;12.10;56.50
680;DHT22;322;48.846;9.230;2023-04-15T12:29:00;11.30;65.50
680;DHT22;322;48.846;9.230;2023-04-15T12:31:28;10.30;72.70
680;DHT22;322;48.846;9.230;2023-04-15T12:33:55;9.80;79.00
680;DHT22;322;48.846;9.230;2023-04-15T12:36:22;9.50;83.90
680;DHT22;322;48.846;9.230;2023-04-15T12:38:50;9.10;83.70
680;DHT22;322;48.846;9.230;2023-04-15T12:41:18;8.80;85.60
680;DHT22;322;48.846;9.230;2023-04-15T12:43:45;8.60;86.70
680;DHT22;322;48.846;9.230;2023-04-15T12:46:12;8.60;87.80
680;DHT22;322;48.846;9.230;2023-04-15T12:48:40;8.70;90.10
680;DHT22;322;48.846;9.230;2023-04-15T12:51:06;8.90;89.80
680;DHT22;322;48.846;9.230;2023-04-15T12:53:33;9.10;86.80
680;DHT22;322;48.846;9.230;2023-04-15T12:56:02;9.50;90.10
680;DHT22;322;48.846;9.230;2023-04-15T12:58:28;9.90;93.50
680;DHT22;322;48.846;9.230;2023-04-15T13:00:55;10.10;87.50
680;DHT22;322;48.846;9.230;2023-04-15T13:03:22;10.10;80.80
680;DHT22;322;48.846;9.230;2023-04-15T13:05:49;10.30;81.00
680;DHT22;322;48.846;9.230;2023-04-15T13:08:17;10.40;71.80
680;DHT22;322;48.846;9.230;2023-04-15T13:10:43;10.50;77.10
680;DHT22;322;48.846;9.230;2023-04-15T13:13:12;10.60;72.90
680;DHT22;322;48.846;9.230;2023-04-15T13:15:38;10.80;60.60
680;DHT22;322;48.846;9.230;2023-04-15T13:18:06;10.80;65.80
680;DHT22;322;48.846;9.230;2023-04-15T13:20:34;10.90;66.70
680;DHT22;322;48.846;9.230;2023-04-15T13:23:01;11.10;63.60
680;DHT22;322;48.846;9.230;2023-04-15T13:25:27;11.40;62.50
680;DHT22;322;48.846;9.230;2023-04-15T13:27:54;11.60;61.60
680;DHT22;322;48.846;9.230;2023-04-15T13:30:23;11.90;61.10
680;DHT22;322;48.846;9.230;2023-04-15T13:32:50;12.30;60.50
680;DHT22;322;48.846;9.230;2023-04-15T13:35:18;12.50;57.30
680;DHT22;322;48.846;9.230;2023-04-15T13:37:45;12.90;56.60
680;DHT22;322;48.846;9.230;2023-04-15T13:40:12;13.00;54.10
680;DHT22;322;48.846;9.230;2023-04-15T13:42:39;12.90;50.40
680;DHT22;322;48.846;9.230;2023-04-15T13:45:07;12.70;48.90
680;DHT22;322;48.846;9.230;2023-04-15T13:47:35;12.50;51.10
680;DHT22;322;48.846;9.230;2023-04-15T13:50:02;12.50;47.30
680;DHT22;322;48.846;9.230;2023-04-15T13:52:29;12.30;47.20
680;DHT22;322;48.846;9.230;2023-04-15T13:54:56;12.30;45.70
680;DHT22;322;48.846;9.230;2023-04-15T13:57:23;12.20;48.20
680;DHT22;322;48.846;9.230;2023-04-15T13:59:50;12.10;48.60
680;DHT22;322;48.846;9.230;2023-04-15T14:02:20;12.00;47.20
680;DHT22;322;48.846;9.230;2023-04-15T14:04:48;12.10;48.70
680;DHT22;322;48.846;9.230;2023-04-15T14:07:15;12.10;47.30
680;DHT22;322;48.846;9.230;2023-04-15T14:09:42;12.00;44.20
680;DHT22;322;48.846;9.230;2023-04-15T14:12:09;12.00;43.90
680;DHT22;322;48.846;9.230;2023-04-15T14:14:36;12.00;44.90
680;DHT22;322;48.846;9.230;2023-04-15T14:17:03;12.00;45.80
680;DHT22;322;48.846;9.230;2023-04-15T14:19:30;12.00;46.20
680;DHT22;322;48.846;9.230;2023-04-15T14:21:58;11.90;49.10
680;DHT22;322;48.846;9.230;2023-04-15T14:24:25;11.90;49.70
680;DHT22;322;48.846;9.230;2023-04-15T14:26:52;11.90;49.40
680;DHT22;322;48.846;9.230;2023-04-15T14:29:19;12.00;49.70
680;DHT22;322;48.846;9.230;2023-04-15T14:31:46;12.00;49.30
680;DHT22;322;48.846;9.230;2023-04-15T14:34:14;12.00;50.50
680;DHT22;322;48.846;9.230;2023-04-15T14:36:41;12.00;49.90
680;DHT22;322;48.846;9.230;2023-04-15T14:39:09;11.90;47.90
680;DHT22;322;48.846;9.230;2023-04-15T14:41:37;11.80;47.60
680;DHT22;322;48.846;9.230;2023-04-15T14:44:03;11.70;47.60
680;DHT22;322;48.846;9.230;2023-04-15T14:46:30;11.60;48.90
680;DHT22;322;48.846;9.230;2023-04-15T14:48:58;11.60;48.80
680;DHT22;322;48.846;9.230;2023-04-15T14:51:24;11.50;47.60
680;DHT22;322;48.846;9.230;2023-04-15T14:53:51;11.50;48.00
680;DHT22;322;48.846;9.230;2023-04-15T14:56:19;11.40;48.70
680;DHT22;322;48.846;9.230;2023-04-15T14:58:46;11.40;47.90
680;DHT22;322;48.846;9.230;2023-04-15T15:01:13;11.30;48.60
680;DHT22;322;48.846;9.230;2023-04-15T15:03:40;11.30;49.10
680;DHT22;322;48.846;9.230;2023-04-15T15:06:07;11.20;50.60
680;DHT22;322;48.846;9.230;2023-04-15T15:08:34;11.10;51.80
680;DHT22;322;48.846;9.230;2023-04-15T15:11:01;11.00;51.80
680;DHT22;322;48.846;9.230;2023-04-15T15:13:29;10.90;52.50
680;DHT22;322;48.846;9.230;2023-04-15T15:15:57;10.90;53.00
680;DHT22;322;48.846;9.230;2023-04-15T15:18:23;10.90;53.40
680;DHT22;322;48.846;9.230;2023-04-15T15:20:50;10.80;53.00
680;DHT22;322;48.846;9.230;2023-04-15T15:23:17;10.80;53.90
680;DHT22;322;48.846;9.230;2023-04-15T15:25:45;10.70;54.80
680;DHT22;322;48.846;9.230;2023-04-15T15:28:12;10.50;56.40
680;DHT22;322;48.846;9.230;2023-04-15T15:30:40;10.20;57.60
680;DHT22;322;48.846;9.230;2023-04-15T15:33:07;10.10;58.20
680;DHT22;322;48.846;9.230;2023-04-15T15:35:34;10.00;59.60
680;DHT22;322;48.846;9.230;2023-04-15T15:38:00;10.00;58.70
680;DHT22;322;48.846;9.230;2023-04-15T15:40:27;10.00;57.10
680;DHT22;322;48.846;9.230;2023-04-15T15:42:54;10.20;57.70
680;DHT22;322;48.846;9.230;2023-04-15T15:45:21;10.30;57.20
680;DHT22;322;48.846;9.230;2023-04-15T15:47:49;10.40;57.20
680;DHT22;322;48.846;9.230;2023-04-15T15:50:16;10.60;57.30
680;DHT22;322;48.846;9.230;2023-04-15T15:52:43;10.60;56.50
680;DHT22;322;48.846;9.230;2023-04-15T15:55:10;10.50;57.70
680;DHT22;322;48.846;9.230;2023-04-15T15:57:37;10.50;59.20
680;DHT22;322;48.846;9.230;2023-04-15T16:00:04;10.20;62.60
680;DHT22;322;48.846;9.230;2023-04-15T16:02:32;9.90;67.80
680;DHT22;322;48.846;9.230;2023-04-15T16:05:00;9.60;72.10
680;DHT22;322;48.846;9.230;2023-04-15T16:07:27;9.40;75.20
680;DHT22;322;48.846;9.230;2023-04-15T16:09:53;9.30;79.70
680;DHT22;322;48.846;9.230;2023-04-15T16:12:20;9.20;82.00
680;DHT22;322;48.846;9.230;2023-04-15T16:14:47;9.10;85.60
680;DHT22;322;48.846;9.230;2023-04-15T16:17:14;9.10;86.60
680;DHT22;322;48.846;9.230;2023-04-15T16:19:41;9.00;88.20
680;DHT22;322;48.846;9.230;2023-04-15T16:22:09;9.00;89.20
680;DHT22;322;48.846;9.230;2023-04-15T16:24:35;8.90;90.70
680;DHT22;322;48.846;9.230;2023-04-15T16:27:02;8.90;91.10
680;DHT22;322;48.846;9.230;2023-04-15T16:29:29;8.80;91.50
680;DHT22;322;48.846;9.230;2023-04-15T16:31:56;8.80;92.10
680;DHT22;322;48.846;9.230;2023-04-15T16:34:23;8.70;92.20
680;DHT22;322;48.846;9.230;2023-04-15T16:36:50;8.70;92.70
680;DHT22;322;48.846;9.230;2023-04-15T16:39:18;8.80;93.10
680;DHT22;322;48.846;9.230;2023-04-15T16:41:45;8.70;93.10
680;DHT22;322;48.846;9.230;2023-04-15T16:44:12;8.70;93.80
680;DHT22;322;48.846;9.230;2023-04-15T16:46:38;8.60;94.20